sensor_id;sensor_type;location;lat;lon;timestamp;P1;durP1;ratioP1;P2;durP2;ratioP2
26102;SDS011;32703;49.182;9.042;2022-10-10T00:00:44;2.30;;;1.73;;
26102;SDS011;32703;49.182;9.042;2022-10-10T00:03:10;1.63;;;1.13;;
26102;SDS011;32703;49.182;9.042;2022-10-10T00:05:36;4.30;;;1.57;;
26102;SDS011;32703;49.182;9.042;2022-10-10T00:08:03;2.72;;;1.30;;
26102;SDS011;32703;49.182;9.042;2022-10-10T00:10:30;3.47;;;1.50;;
26102;SDS011;32703;49.182;9.042;2022-10-10T00:12:56;2.57;;;1.40;;
26102;SDS011;32703;49.182;9.042;2022-10-10T00:15:22;4.03;;;1.20;;
26102;SDS011;32703;49.182;9.042;2022-10-10T00:17:47;2.03;;;1.30;;
26102;SDS011;32703;49.182;9.042;2022-10-10T00:20:15;1.67;;;1.23;;
26102;SDS011;32703;49.182;9.042;2022-10-10T00:22:41;2.97;;;1.70;;
26102;SDS011;32703;49.182;9.042;2022-10-10T00:25:07;2.60;;;1.63;;
26102;SDS011;32703;49.182;9.042;2022-10-10T00:27:34;7.43;;;1.63;;
26102;SDS011;32703;49.182;9.042;2022-10-10T00:30:00;3.07;;;1.60;;
26102;SDS011;32703;49.182;9.042;2022-10-10T00:32:26;3.23;;;1.70;;
26102;SDS011;32703;49.182;9.042;2022-10-10T00:34:52;2.87;;;1.60;;
26102;SDS011;32703;49.182;9.042;2022-10-10T00:37:18;2.43;;;1.23;;
26102;SDS011;32703;49.182;9.042;2022-10-10T00:39:43;2.47;;;1.30;;
26102;SDS011;32703;49.182;9.042;2022-10-10T00:42:10;1.23;;;1.10;;
26102;SDS011;32703;49.182;9.042;2022-10-10T00:44:38;7.27;;;1.63;;
26102;SDS011;32703;49.182;9.042;2022-10-10T00:47:04;2.17;;;1.50;;
26102;SDS011;32703;49.182;9.042;2022-10-10T00:49:29;3.03;;;1.80;;
26102;SDS011;32703;49.182;9.042;2022-10-10T00:51:56;3.27;;;1.77;;
26102;SDS011;32703;49.182;9.042;2022-10-10T00:54:24;2.27;;;1.60;;
26102;SDS011;32703;49.182;9.042;2022-10-10T00:56:54;1.93;;;1.40;;
26102;SDS011;32703;49.182;9.042;2022-10-10T00:59:24;2.70;;;1.33;;
26102;SDS011;32703;49.182;9.042;2022-10-10T01:01:51;3.23;;;1.57;;
26102;SDS011;32703;49.182;9.042;2022-10-10T01:07:06;2.93;;;1.50;;
26102;SDS011;32703;49.182;9.042;2022-10-10T01:09:34;1.73;;;1.30;;
26102;SDS011;32703;49.182;9.042;2022-10-10T01:12:06;4.33;;;1.70;;
26102;SDS011;32703;49.182;9.042;2022-10-10T01:15:00;3.87;;;1.43;;
26102;SDS011;32703;49.182;9.042;2022-10-10T01:17:32;3.13;;;1.67;;
26102;SDS011;32703;49.182;9.042;2022-10-10T01:31:13;2.80;;;1.87;;
26102;SDS011;32703;49.182;9.042;2022-10-10T01:33:48;2.17;;;1.53;;
26102;SDS011;32703;49.182;9.042;2022-10-10T01:39:41;2.07;;;1.33;;
26102;SDS011;32703;49.182;9.042;2022-10-10T01:42:27;2.30;;;1.20;;
26102;SDS011;32703;49.182;9.042;2022-10-10T01:45:14;4.80;;;1.80;;
26102;SDS011;32703;49.182;9.042;2022-10-10T01:47:40;3.73;;;1.60;;
26102;SDS011;32703;49.182;9.042;2022-10-10T01:50:06;2.63;;;1.50;;
26102;SDS011;32703;49.182;9.042;2022-10-10T01:55:19;2.73;;;1.57;;
26102;SDS011;32703;49.182;9.042;2022-10-10T02:00:26;3.63;;;2.00;;
26102;SDS011;32703;49.182;9.042;2022-10-10T02:02:54;3.23;;;1.70;;
26102;SDS011;32703;49.182;9.042;2022-10-10T02:08:11;2.67;;;1.47;;
26102;SDS011;32703;49.182;9.042;2022-10-10T02:10:45;2.30;;;1.30;;
26102;SDS011;32703;49.182;9.042;2022-10-10T02:13:13;2.93;;;1.63;;
26102;SDS011;32703;49.182;9.042;2022-10-10T02:15:42;2.20;;;1.30;;
26102;SDS011;32703;49.182;9.042;2022-10-10T02:18:11;2.03;;;1.50;;
26102;SDS011;32703;49.182;9.042;2022-10-10T02:20:40;2.67;;;1.90;;
26102;SDS011;32703;49.182;9.042;2022-10-10T02:23:08;2.33;;;1.50;;
26102;SDS011;32703;49.182;9.042;2022-10-10T02:25:40;2.10;;;1.70;;
26102;SDS011;32703;49.182;9.042;2022-10-10T02:30:53;2.87;;;1.90;;
26102;SDS011;32703;49.182;9.042;2022-10-10T02:33:31;2.17;;;1.37;;
26102;SDS011;32703;49.182;9.042;2022-10-10T02:36:05;2.70;;;1.63;;
26102;SDS011;32703;49.182;9.042;2022-10-10T02:38:31;3.17;;;1.77;;
26102;SDS011;32703;49.182;9.042;2022-10-10T02:40:57;2.90;;;1.60;;
26102;SDS011;32703;49.182;9.042;2022-10-10T02:43:27;2.63;;;1.60;;
26102;SDS011;32703;49.182;9.042;2022-10-10T02:45:55;2.43;;;1.30;;
26102;SDS011;32703;49.182;9.042;2022-10-10T02:48:20;2.83;;;1.43;;
26102;SDS011;32703;49.182;9.042;2022-10-10T02:50:46;3.73;;;1.53;;
26102;SDS011;32703;49.182;9.042;2022-10-10T02:53:12;7.97;;;1.23;;
26102;SDS011;32703;49.182;9.042;2022-10-10T02:55:37;3.10;;;1.83;;
26102;SDS011;32703;49.182;9.042;2022-10-10T02:58:03;1.87;;;1.47;;
26102;SDS011;32703;49.182;9.042;2022-10-10T03:00:28;5.63;;;1.67;;
26102;SDS011;32703;49.182;9.042;2022-10-10T03:02:54;5.40;;;1.90;;
26102;SDS011;32703;49.182;9.042;2022-10-10T03:05:19;2.83;;;1.57;;
26102;SDS011;32703;49.182;9.042;2022-10-10T03:07:45;5.67;;;1.83;;
26102;SDS011;32703;49.182;9.042;2022-10-10T03:10:11;3.60;;;1.80;;
26102;SDS011;32703;49.182;9.042;2022-10-10T03:12:39;3.20;;;1.80;;
26102;SDS011;32703;49.182;9.042;2022-10-10T03:15:05;3.80;;;2.30;;
26102;SDS011;32703;49.182;9.042;2022-10-10T03:17:31;2.73;;;1.70;;
26102;SDS011;32703;49.182;9.042;2022-10-10T03:19:56;4.60;;;2.13;;
26102;SDS011;32703;49.182;9.042;2022-10-10T03:22:22;3.70;;;1.50;;
26102;SDS011;32703;49.182;9.042;2022-10-10T03:24:47;3.50;;;2.00;;
26102;SDS011;32703;49.182;9.042;2022-10-10T03:27:13;2.93;;;1.60;;
26102;SDS011;32703;49.182;9.042;2022-10-10T03:29:38;7.57;;;1.70;;
26102;SDS011;32703;49.182;9.042;2022-10-10T03:32:04;5.10;;;2.07;;
26102;SDS011;32703;49.182;9.042;2022-10-10T03:34:29;4.27;;;1.83;;
26102;SDS011;32703;49.182;9.042;2022-10-10T03:36:55;5.53;;;2.37;;
26102;SDS011;32703;49.182;9.042;2022-10-10T03:39:20;2.97;;;1.83;;
26102;SDS011;32703;49.182;9.042;2022-10-10T03:41:46;3.90;;;1.87;;
26102;SDS011;32703;49.182;9.042;2022-10-10T03:44:14;4.70;;;2.47;;
26102;SDS011;32703;49.182;9.042;2022-10-10T03:46:39;2.50;;;1.90;;
26102;SDS011;32703;49.182;9.042;2022-10-10T03:49:05;3.00;;;1.73;;
26102;SDS011;32703;49.182;9.042;2022-10-10T03:51:30;2.67;;;1.90;;
26102;SDS011;32703;49.182;9.042;2022-10-10T03:53:56;3.03;;;1.80;;
26102;SDS011;32703;49.182;9.042;2022-10-10T03:56:21;3.27;;;2.10;;
26102;SDS011;32703;49.182;9.042;2022-10-10T03:58:47;2.70;;;1.63;;
26102;SDS011;32703;49.182;9.042;2022-10-10T04:01:12;3.83;;;1.73;;
26102;SDS011;32703;49.182;9.042;2022-10-10T04:03:38;3.67;;;1.77;;
26102;SDS011;32703;49.182;9.042;2022-10-10T04:06:04;3.37;;;1.80;;
26102;SDS011;32703;49.182;9.042;2022-10-10T04:08:31;3.10;;;1.80;;
26102;SDS011;32703;49.182;9.042;2022-10-10T04:10:56;2.47;;;1.63;;
26102;SDS011;32703;49.182;9.042;2022-10-10T04:13:22;4.40;;;1.73;;
26102;SDS011;32703;49.182;9.042;2022-10-10T04:15:53;2.87;;;2.10;;
26102;SDS011;32703;49.182;9.042;2022-10-10T04:18:20;1.73;;;1.57;;
26102;SDS011;32703;49.182;9.042;2022-10-10T04:20:46;3.87;;;2.17;;
26102;SDS011;32703;49.182;9.042;2022-10-10T04:23:11;3.10;;;1.60;;
26102;SDS011;32703;49.182;9.042;2022-10-10T04:25:37;4.00;;;2.00;;
26102;SDS011;32703;49.182;9.042;2022-10-10T04:28:02;2.43;;;1.70;;
26102;SDS011;32703;49.182;9.042;2022-10-10T04:30:29;6.20;;;2.10;;
26102;SDS011;32703;49.182;9.042;2022-10-10T04:32:58;4.23;;;1.50;;
26102;SDS011;32703;49.182;9.042;2022-10-10T04:35:23;3.27;;;1.83;;
26102;SDS011;32703;49.182;9.042;2022-10-10T04:37:49;4.33;;;2.00;;
26102;SDS011;32703;49.182;9.042;2022-10-10T04:40:15;2.50;;;1.50;;
26102;SDS011;32703;49.182;9.042;2022-10-10T04:42:41;4.17;;;2.23;;
26102;SDS011;32703;49.182;9.042;2022-10-10T04:45:07;5.23;;;2.00;;
26102;SDS011;32703;49.182;9.042;2022-10-10T04:47:33;3.53;;;2.00;;
26102;SDS011;32703;49.182;9.042;2022-10-10T04:49:58;2.73;;;1.73;;
26102;SDS011;32703;49.182;9.042;2022-10-10T04:52:24;5.60;;;2.67;;
26102;SDS011;32703;49.182;9.042;2022-10-10T04:54:49;2.53;;;1.70;;
26102;SDS011;32703;49.182;9.042;2022-10-10T04:57:15;2.63;;;1.80;;
26102;SDS011;32703;49.182;9.042;2022-10-10T04:59:40;3.93;;;2.00;;
26102;SDS011;32703;49.182;9.042;2022-10-10T05:02:06;3.43;;;1.73;;
26102;SDS011;32703;49.182;9.042;2022-10-10T05:04:31;2.97;;;1.53;;
26102;SDS011;32703;49.182;9.042;2022-10-10T05:06:57;2.87;;;1.93;;
26102;SDS011;32703;49.182;9.042;2022-10-10T05:09:23;4.03;;;1.97;;
26102;SDS011;32703;49.182;9.042;2022-10-10T05:11:48;3.30;;;2.13;;
26102;SDS011;32703;49.182;9.042;2022-10-10T05:14:14;4.03;;;2.03;;
26102;SDS011;32703;49.182;9.042;2022-10-10T05:16:39;3.27;;;2.13;;
26102;SDS011;32703;49.182;9.042;2022-10-10T05:19:05;2.87;;;2.00;;
26102;SDS011;32703;49.182;9.042;2022-10-10T05:21:30;4.40;;;2.50;;
26102;SDS011;32703;49.182;9.042;2022-10-10T05:23:56;3.33;;;2.10;;
26102;SDS011;32703;49.182;9.042;2022-10-10T05:26:21;6.70;;;2.83;;
26102;SDS011;32703;49.182;9.042;2022-10-10T05:28:47;5.30;;;2.27;;
26102;SDS011;32703;49.182;9.042;2022-10-10T05:31:12;6.07;;;2.67;;
26102;SDS011;32703;49.182;9.042;2022-10-10T05:33:38;5.17;;;2.53;;
26102;SDS011;32703;49.182;9.042;2022-10-10T05:36:08;4.80;;;2.50;;
26102;SDS011;32703;49.182;9.042;2022-10-10T05:38:36;4.47;;;2.63;;
26102;SDS011;32703;49.182;9.042;2022-10-10T05:41:03;3.67;;;1.90;;
26102;SDS011;32703;49.182;9.042;2022-10-10T05:43:28;3.10;;;2.03;;
26102;SDS011;32703;49.182;9.042;2022-10-10T05:45:54;7.83;;;2.03;;
26102;SDS011;32703;49.182;9.042;2022-10-10T05:48:21;2.57;;;1.87;;
26102;SDS011;32703;49.182;9.042;2022-10-10T05:50:48;2.40;;;1.40;;
26102;SDS011;32703;49.182;9.042;2022-10-10T05:53:15;3.57;;;2.17;;
26102;SDS011;32703;49.182;9.042;2022-10-10T05:55:41;6.30;;;2.10;;
26102;SDS011;32703;49.182;9.042;2022-10-10T05:58:08;5.67;;;2.20;;
26102;SDS011;32703;49.182;9.042;2022-10-10T06:00:34;2.87;;;1.80;;
26102;SDS011;32703;49.182;9.042;2022-10-10T06:03:00;3.93;;;2.03;;
26102;SDS011;32703;49.182;9.042;2022-10-10T06:05:26;2.83;;;1.90;;
26102;SDS011;32703;49.182;9.042;2022-10-10T06:07:52;3.00;;;1.80;;
26102;SDS011;32703;49.182;9.042;2022-10-10T06:10:17;2.80;;;1.50;;
26102;SDS011;32703;49.182;9.042;2022-10-10T06:12:43;3.47;;;2.50;;
26102;SDS011;32703;49.182;9.042;2022-10-10T06:15:09;2.37;;;1.80;;
26102;SDS011;32703;49.182;9.042;2022-10-10T06:17:35;3.60;;;2.13;;
26102;SDS011;32703;49.182;9.042;2022-10-10T06:20:00;6.80;;;2.07;;
26102;SDS011;32703;49.182;9.042;2022-10-10T06:22:26;2.93;;;1.93;;
26102;SDS011;32703;49.182;9.042;2022-10-10T06:24:51;3.53;;;2.30;;
26102;SDS011;32703;49.182;9.042;2022-10-10T06:27:17;3.17;;;2.20;;
26102;SDS011;32703;49.182;9.042;2022-10-10T06:29:43;4.17;;;2.37;;
26102;SDS011;32703;49.182;9.042;2022-10-10T06:32:08;4.67;;;2.43;;
26102;SDS011;32703;49.182;9.042;2022-10-10T06:34:34;3.80;;;2.57;;
26102;SDS011;32703;49.182;9.042;2022-10-10T06:36:59;5.70;;;3.27;;
26102;SDS011;32703;49.182;9.042;2022-10-10T06:39:25;4.97;;;2.30;;
26102;SDS011;32703;49.182;9.042;2022-10-10T06:41:50;7.60;;;2.75;;
26102;SDS011;32703;49.182;9.042;2022-10-10T06:44:16;3.28;;;2.13;;
26102;SDS011;32703;49.182;9.042;2022-10-10T06:46:42;6.63;;;2.73;;
26102;SDS011;32703;49.182;9.042;2022-10-10T06:49:08;4.03;;;2.50;;
26102;SDS011;32703;49.182;9.042;2022-10-10T06:51:34;5.38;;;2.60;;
26102;SDS011;32703;49.182;9.042;2022-10-10T06:54:00;8.30;;;2.40;;
26102;SDS011;32703;49.182;9.042;2022-10-10T06:56:25;3.85;;;2.15;;
26102;SDS011;32703;49.182;9.042;2022-10-10T06:58:51;3.60;;;2.10;;
26102;SDS011;32703;49.182;9.042;2022-10-10T07:01:18;3.28;;;1.90;;
26102;SDS011;32703;49.182;9.042;2022-10-10T07:03:45;3.65;;;2.38;;
26102;SDS011;32703;49.182;9.042;2022-10-10T07:06:11;6.88;;;2.72;;
26102;SDS011;32703;49.182;9.042;2022-10-10T07:08:37;7.95;;;2.10;;
26102;SDS011;32703;49.182;9.042;2022-10-10T07:11:04;4.30;;;2.45;;
26102;SDS011;32703;49.182;9.042;2022-10-10T07:13:31;4.10;;;2.25;;
26102;SDS011;32703;49.182;9.042;2022-10-10T07:15:57;2.80;;;1.90;;
26102;SDS011;32703;49.182;9.042;2022-10-10T07:18:23;3.05;;;1.92;;
26102;SDS011;32703;49.182;9.042;2022-10-10T07:20:48;4.05;;;2.20;;
26102;SDS011;32703;49.182;9.042;2022-10-10T07:23:14;2.78;;;1.58;;
26102;SDS011;32703;49.182;9.042;2022-10-10T07:25:40;3.85;;;1.98;;
26102;SDS011;32703;49.182;9.042;2022-10-10T07:28:06;2.45;;;2.00;;
26102;SDS011;32703;49.182;9.042;2022-10-10T07:30:33;2.92;;;2.03;;
26102;SDS011;32703;49.182;9.042;2022-10-10T07:33:07;3.67;;;2.60;;
26102;SDS011;32703;49.182;9.042;2022-10-10T07:35:33;5.57;;;2.03;;
26102;SDS011;32703;49.182;9.042;2022-10-10T07:37:59;4.80;;;2.75;;
26102;SDS011;32703;49.182;9.042;2022-10-10T07:40:24;5.55;;;2.65;;
26102;SDS011;32703;49.182;9.042;2022-10-10T07:42:50;4.18;;;2.28;;
26102;SDS011;32703;49.182;9.042;2022-10-10T07:45:16;5.32;;;2.40;;
26102;SDS011;32703;49.182;9.042;2022-10-10T07:47:42;4.47;;;2.22;;
26102;SDS011;32703;49.182;9.042;2022-10-10T07:50:09;3.47;;;2.00;;
26102;SDS011;32703;49.182;9.042;2022-10-10T07:52:35;6.28;;;2.53;;
26102;SDS011;32703;49.182;9.042;2022-10-10T07:55:01;4.45;;;2.35;;
26102;SDS011;32703;49.182;9.042;2022-10-10T07:57:28;4.68;;;2.10;;
26102;SDS011;32703;49.182;9.042;2022-10-10T07:59:58;10.65;;;2.30;;
26102;SDS011;32703;49.182;9.042;2022-10-10T08:02:24;2.70;;;2.00;;
26102;SDS011;32703;49.182;9.042;2022-10-10T08:04:49;3.95;;;2.25;;
26102;SDS011;32703;49.182;9.042;2022-10-10T08:07:15;3.30;;;2.10;;
26102;SDS011;32703;49.182;9.042;2022-10-10T08:09:40;4.60;;;1.98;;
26102;SDS011;32703;49.182;9.042;2022-10-10T08:12:06;6.07;;;2.97;;
26102;SDS011;32703;49.182;9.042;2022-10-10T08:14:31;3.90;;;2.63;;
26102;SDS011;32703;49.182;9.042;2022-10-10T08:16:57;5.57;;;2.70;;
26102;SDS011;32703;49.182;9.042;2022-10-10T08:19:22;5.80;;;3.03;;
26102;SDS011;32703;49.182;9.042;2022-10-10T08:21:48;4.32;;;3.15;;
26102;SDS011;32703;49.182;9.042;2022-10-10T08:24:14;4.85;;;2.55;;
26102;SDS011;32703;49.182;9.042;2022-10-10T08:26:40;9.73;;;3.75;;
26102;SDS011;32703;49.182;9.042;2022-10-10T08:29:05;5.55;;;2.40;;
26102;SDS011;32703;49.182;9.042;2022-10-10T08:31:31;6.18;;;3.10;;
26102;SDS011;32703;49.182;9.042;2022-10-10T08:33:58;10.25;;;2.75;;
26102;SDS011;32703;49.182;9.042;2022-10-10T08:36:24;5.20;;;2.50;;
26102;SDS011;32703;49.182;9.042;2022-10-10T08:38:53;4.50;;;3.03;;
26102;SDS011;32703;49.182;9.042;2022-10-10T08:43:56;6.55;;;2.60;;
26102;SDS011;32703;49.182;9.042;2022-10-10T08:46:29;4.70;;;2.50;;
26102;SDS011;32703;49.182;9.042;2022-10-10T08:49:02;3.75;;;2.63;;
26102;SDS011;32703;49.182;9.042;2022-10-10T08:51:37;3.08;;;2.08;;
26102;SDS011;32703;49.182;9.042;2022-10-10T08:54:05;7.93;;;2.67;;
26102;SDS011;32703;49.182;9.042;2022-10-10T08:56:37;7.78;;;2.47;;
26102;SDS011;32703;49.182;9.042;2022-10-10T08:59:11;3.70;;;1.80;;
26102;SDS011;32703;49.182;9.042;2022-10-10T09:01:42;6.78;;;2.53;;
26102;SDS011;32703;49.182;9.042;2022-10-10T09:04:12;4.70;;;2.60;;
26102;SDS011;32703;49.182;9.042;2022-10-10T09:06:44;4.53;;;2.20;;
26102;SDS011;32703;49.182;9.042;2022-10-10T09:12:21;7.63;;;2.55;;
26102;SDS011;32703;49.182;9.042;2022-10-10T09:15:57;7.18;;;2.20;;
26102;SDS011;32703;49.182;9.042;2022-10-10T09:18:03;3.22;;;2.20;;
26102;SDS011;32703;49.182;9.042;2022-10-10T09:25:57;4.60;;;1.77;;
26102;SDS011;32703;49.182;9.042;2022-10-10T09:31:23;3.75;;;1.70;;
26102;SDS011;32703;49.182;9.042;2022-10-10T09:36:30;5.57;;;2.30;;
26102;SDS011;32703;49.182;9.042;2022-10-10T09:39:00;4.45;;;2.20;;
26102;SDS011;32703;49.182;9.042;2022-10-10T09:41:33;3.75;;;2.00;;
26102;SDS011;32703;49.182;9.042;2022-10-10T09:44:11;3.38;;;1.83;;
26102;SDS011;32703;49.182;9.042;2022-10-10T09:46:38;3.03;;;1.80;;
26102;SDS011;32703;49.182;9.042;2022-10-10T09:49:04;5.43;;;2.47;;
26102;SDS011;32703;49.182;9.042;2022-10-10T09:51:31;4.95;;;2.70;;
26102;SDS011;32703;49.182;9.042;2022-10-10T09:53:57;7.13;;;2.83;;
26102;SDS011;32703;49.182;9.042;2022-10-10T09:56:24;6.30;;;2.80;;
26102;SDS011;32703;49.182;9.042;2022-10-10T09:58:52;6.07;;;2.65;;
26102;SDS011;32703;49.182;9.042;2022-10-10T10:01:28;5.05;;;2.38;;
26102;SDS011;32703;49.182;9.042;2022-10-10T10:06:42;4.85;;;1.83;;
26102;SDS011;32703;49.182;9.042;2022-10-10T10:09:14;2.67;;;1.60;;
26102;SDS011;32703;49.182;9.042;2022-10-10T10:11:42;3.05;;;1.92;;
26102;SDS011;32703;49.182;9.042;2022-10-10T10:16:50;5.45;;;1.85;;
26102;SDS011;32703;49.182;9.042;2022-10-10T10:19:37;4.90;;;1.70;;
26102;SDS011;32703;49.182;9.042;2022-10-10T10:22:04;4.90;;;1.98;;
26102;SDS011;32703;49.182;9.042;2022-10-10T10:24:46;2.22;;;1.45;;
26102;SDS011;32703;49.182;9.042;2022-10-10T10:27:20;4.15;;;1.73;;
26102;SDS011;32703;49.182;9.042;2022-10-10T10:29:49;4.38;;;1.85;;
26102;SDS011;32703;49.182;9.042;2022-10-10T10:40:28;2.45;;;1.48;;
26102;SDS011;32703;49.182;9.042;2022-10-10T10:49:02;1.88;;;1.33;;
26102;SDS011;32703;49.182;9.042;2022-10-10T10:54:32;1.80;;;1.33;;
26102;SDS011;32703;49.182;9.042;2022-10-10T10:57:35;3.95;;;1.65;;
26102;SDS011;32703;49.182;9.042;2022-10-10T11:00:13;8.98;;;1.45;;
26102;SDS011;32703;49.182;9.042;2022-10-10T11:05:38;2.88;;;1.50;;
26102;SDS011;32703;49.182;9.042;2022-10-10T11:08:26;1.55;;;1.20;;
26102;SDS011;32703;49.182;9.042;2022-10-10T11:16:37;2.00;;;1.30;;
26102;SDS011;32703;49.182;9.042;2022-10-10T11:22:12;4.00;;;1.73;;
26102;SDS011;32703;49.182;9.042;2022-10-10T11:24:35;3.00;;;1.48;;
26102;SDS011;32703;49.182;9.042;2022-10-10T11:32:36;1.77;;;1.13;;
26102;SDS011;32703;49.182;9.042;2022-10-10T11:35:13;3.42;;;1.60;;
26102;SDS011;32703;49.182;9.042;2022-10-10T11:37:44;2.70;;;1.50;;
26102;SDS011;32703;49.182;9.042;2022-10-10T11:40:48;2.70;;;1.20;;
26102;SDS011;32703;49.182;9.042;2022-10-10T11:43:14;3.00;;;1.23;;
26102;SDS011;32703;49.182;9.042;2022-10-10T11:46:01;1.17;;;0.95;;
26102;SDS011;32703;49.182;9.042;2022-10-10T11:48:47;3.25;;;1.10;;
26102;SDS011;32703;49.182;9.042;2022-10-10T11:51:21;3.28;;;1.27;;
26102;SDS011;32703;49.182;9.042;2022-10-10T11:53:58;2.88;;;1.17;;
26102;SDS011;32703;49.182;9.042;2022-10-10T11:56:33;7.43;;;1.60;;
26102;SDS011;32703;49.182;9.042;2022-10-10T11:59:10;2.05;;;1.30;;
26102;SDS011;32703;49.182;9.042;2022-10-10T12:01:53;4.00;;;1.70;;
26102;SDS011;32703;49.182;9.042;2022-10-10T12:04:23;2.30;;;1.50;;
26102;SDS011;32703;49.182;9.042;2022-10-10T12:06:56;1.60;;;1.15;;
26102;SDS011;32703;49.182;9.042;2022-10-10T12:09:32;3.08;;;1.27;;
26102;SDS011;32703;49.182;9.042;2022-10-10T12:12:06;2.20;;;1.27;;
26102;SDS011;32703;49.182;9.042;2022-10-10T12:14:40;4.72;;;1.50;;
26102;SDS011;32703;49.182;9.042;2022-10-10T12:17:21;2.90;;;1.60;;
26102;SDS011;32703;49.182;9.042;2022-10-10T12:19:50;2.95;;;1.05;;
26102;SDS011;32703;49.182;9.042;2022-10-10T12:22:23;1.67;;;1.20;;
26102;SDS011;32703;49.182;9.042;2022-10-10T12:27:43;2.60;;;1.08;;
26102;SDS011;32703;49.182;9.042;2022-10-10T12:30:15;2.58;;;1.40;;
26102;SDS011;32703;49.182;9.042;2022-10-10T12:32:44;1.95;;;1.58;;
26102;SDS011;32703;49.182;9.042;2022-10-10T12:38:18;1.30;;;0.98;;
26102;SDS011;32703;49.182;9.042;2022-10-10T12:43:37;5.38;;;1.45;;
26102;SDS011;32703;49.182;9.042;2022-10-10T12:46:07;2.60;;;1.20;;
26102;SDS011;32703;49.182;9.042;2022-10-10T12:48:42;3.80;;;1.30;;
26102;SDS011;32703;49.182;9.042;2022-10-10T12:51:19;3.50;;;1.52;;
26102;SDS011;32703;49.182;9.042;2022-10-10T12:53:48;2.10;;;1.42;;
26102;SDS011;32703;49.182;9.042;2022-10-10T12:56:17;5.25;;;1.95;;
26102;SDS011;32703;49.182;9.042;2022-10-10T12:59:00;3.10;;;1.17;;
26102;SDS011;32703;49.182;9.042;2022-10-10T13:01:27;5.97;;;1.55;;
26102;SDS011;32703;49.182;9.042;2022-10-10T13:03:56;4.32;;;1.30;;
26102;SDS011;32703;49.182;9.042;2022-10-10T13:08:52;4.82;;;1.55;;
26102;SDS011;32703;49.182;9.042;2022-10-10T13:11:19;2.08;;;1.20;;
26102;SDS011;32703;49.182;9.042;2022-10-10T13:13:48;2.47;;;1.70;;
26102;SDS011;32703;49.182;9.042;2022-10-10T13:16:16;2.70;;;1.30;;
26102;SDS011;32703;49.182;9.042;2022-10-10T13:18:54;3.42;;;1.35;;
26102;SDS011;32703;49.182;9.042;2022-10-10T13:21:22;2.85;;;1.17;;
26102;SDS011;32703;49.182;9.042;2022-10-10T13:23:49;2.20;;;1.20;;
26102;SDS011;32703;49.182;9.042;2022-10-10T13:29:29;3.10;;;1.42;;
26102;SDS011;32703;49.182;9.042;2022-10-10T13:32:21;3.22;;;1.30;;
26102;SDS011;32703;49.182;9.042;2022-10-10T13:34:52;10.23;;;1.23;;
26102;SDS011;32703;49.182;9.042;2022-10-10T13:37:20;2.05;;;1.15;;
26102;SDS011;32703;49.182;9.042;2022-10-10T13:39:47;3.38;;;0.90;;
26102;SDS011;32703;49.182;9.042;2022-10-10T13:42:27;1.65;;;1.30;;
26102;SDS011;32703;49.182;9.042;2022-10-10T13:45:04;3.92;;;1.20;;
26102;SDS011;32703;49.182;9.042;2022-10-10T13:53:20;5.45;;;1.30;;
26102;SDS011;32703;49.182;9.042;2022-10-10T13:58:43;4.97;;;1.10;;
26102;SDS011;32703;49.182;9.042;2022-10-10T14:03:47;2.55;;;1.20;;
26102;SDS011;32703;49.182;9.042;2022-10-10T14:06:18;8.55;;;1.65;;
26102;SDS011;32703;49.182;9.042;2022-10-10T14:08:45;4.88;;;1.13;;
26102;SDS011;32703;49.182;9.042;2022-10-10T14:11:14;3.17;;;1.35;;
26102;SDS011;32703;49.182;9.042;2022-10-10T14:13:44;6.15;;;1.20;;
26102;SDS011;32703;49.182;9.042;2022-10-10T14:16:22;1.33;;;0.90;;
26102;SDS011;32703;49.182;9.042;2022-10-10T14:18:49;2.67;;;1.20;;
26102;SDS011;32703;49.182;9.042;2022-10-10T14:21:14;2.75;;;1.15;;
26102;SDS011;32703;49.182;9.042;2022-10-10T14:23:40;3.22;;;1.17;;
26102;SDS011;32703;49.182;9.042;2022-10-10T14:26:06;1.30;;;1.00;;
26102;SDS011;32703;49.182;9.042;2022-10-10T14:28:36;3.45;;;1.35;;
26102;SDS011;32703;49.182;9.042;2022-10-10T14:31:02;6.40;;;1.65;;
26102;SDS011;32703;49.182;9.042;2022-10-10T14:33:28;7.20;;;1.88;;
26102;SDS011;32703;49.182;9.042;2022-10-10T14:35:54;2.65;;;1.70;;
26102;SDS011;32703;49.182;9.042;2022-10-10T14:38:21;2.83;;;1.45;;
26102;SDS011;32703;49.182;9.042;2022-10-10T14:40:47;3.55;;;1.48;;
26102;SDS011;32703;49.182;9.042;2022-10-10T14:43:13;6.65;;;1.77;;
26102;SDS011;32703;49.182;9.042;2022-10-10T14:45:40;4.75;;;1.90;;
26102;SDS011;32703;49.182;9.042;2022-10-10T14:48:06;5.28;;;2.00;;
26102;SDS011;32703;49.182;9.042;2022-10-10T14:50:35;4.65;;;1.90;;
26102;SDS011;32703;49.182;9.042;2022-10-10T14:53:04;5.95;;;1.40;;
26102;SDS011;32703;49.182;9.042;2022-10-10T14:55:30;3.33;;;1.20;;
26102;SDS011;32703;49.182;9.042;2022-10-10T14:57:55;4.13;;;1.17;;
26102;SDS011;32703;49.182;9.042;2022-10-10T15:00:22;1.52;;;1.02;;
26102;SDS011;32703;49.182;9.042;2022-10-10T15:02:50;1.63;;;0.85;;
26102;SDS011;32703;49.182;9.042;2022-10-10T15:05:15;2.90;;;1.20;;
26102;SDS011;32703;49.182;9.042;2022-10-10T15:07:41;2.40;;;1.42;;
26102;SDS011;32703;49.182;9.042;2022-10-10T15:10:07;1.70;;;1.35;;
26102;SDS011;32703;49.182;9.042;2022-10-10T15:12:35;1.83;;;1.08;;
26102;SDS011;32703;49.182;9.042;2022-10-10T15:15:06;3.72;;;1.38;;
26102;SDS011;32703;49.182;9.042;2022-10-10T15:17:32;3.47;;;2.30;;
26102;SDS011;32703;49.182;9.042;2022-10-10T15:19:58;3.78;;;1.88;;
26102;SDS011;32703;49.182;9.042;2022-10-10T15:22:24;2.72;;;1.60;;
26102;SDS011;32703;49.182;9.042;2022-10-10T15:24:51;5.03;;;2.08;;
26102;SDS011;32703;49.182;9.042;2022-10-10T15:27:17;3.65;;;1.70;;
26102;SDS011;32703;49.182;9.042;2022-10-10T15:29:42;4.65;;;1.95;;
26102;SDS011;32703;49.182;9.042;2022-10-10T15:32:08;3.00;;;1.52;;
26102;SDS011;32703;49.182;9.042;2022-10-10T15:34:33;5.65;;;2.00;;
26102;SDS011;32703;49.182;9.042;2022-10-10T15:36:59;3.30;;;2.00;;
26102;SDS011;32703;49.182;9.042;2022-10-10T15:39:24;4.72;;;1.45;;
26102;SDS011;32703;49.182;9.042;2022-10-10T15:41:50;3.05;;;1.30;;
26102;SDS011;32703;49.182;9.042;2022-10-10T15:44:16;6.38;;;1.40;;
26102;SDS011;32703;49.182;9.042;2022-10-10T15:46:43;1.92;;;1.10;;
26102;SDS011;32703;49.182;9.042;2022-10-10T15:49:10;3.95;;;1.45;;
26102;SDS011;32703;49.182;9.042;2022-10-10T15:51:36;1.85;;;1.02;;
26102;SDS011;32703;49.182;9.042;2022-10-10T15:54:02;6.22;;;1.48;;
26102;SDS011;32703;49.182;9.042;2022-10-10T15:56:28;3.30;;;1.48;;
26102;SDS011;32703;49.182;9.042;2022-10-10T15:58:57;2.13;;;1.15;;
26102;SDS011;32703;49.182;9.042;2022-10-10T16:01:24;1.83;;;1.38;;
26102;SDS011;32703;49.182;9.042;2022-10-10T16:03:51;2.53;;;1.23;;
26102;SDS011;32703;49.182;9.042;2022-10-10T16:06:17;4.22;;;1.30;;
26102;SDS011;32703;49.182;9.042;2022-10-10T16:08:44;2.17;;;1.38;;
26102;SDS011;32703;49.182;9.042;2022-10-10T16:11:11;4.20;;;1.98;;
26102;SDS011;32703;49.182;9.042;2022-10-10T16:13:40;5.60;;;2.05;;
26102;SDS011;32703;49.182;9.042;2022-10-10T16:16:07;3.08;;;1.30;;
26102;SDS011;32703;49.182;9.042;2022-10-10T16:18:35;3.65;;;1.90;;
26102;SDS011;32703;49.182;9.042;2022-10-10T16:21:03;2.63;;;1.70;;
26102;SDS011;32703;49.182;9.042;2022-10-10T16:23:33;5.93;;;1.52;;
26102;SDS011;32703;49.182;9.042;2022-10-10T16:26:06;2.08;;;1.42;;
26102;SDS011;32703;49.182;9.042;2022-10-10T16:28:36;7.10;;;2.15;;
26102;SDS011;32703;49.182;9.042;2022-10-10T16:31:05;4.90;;;2.80;;
26102;SDS011;32703;49.182;9.042;2022-10-10T16:33:33;4.55;;;2.15;;
26102;SDS011;32703;49.182;9.042;2022-10-10T16:36:00;6.40;;;2.22;;
26102;SDS011;32703;49.182;9.042;2022-10-10T16:38:31;6.38;;;2.55;;
26102;SDS011;32703;49.182;9.042;2022-10-10T16:41:00;3.42;;;2.08;;
26102;SDS011;32703;49.182;9.042;2022-10-10T16:43:26;6.53;;;2.30;;
26102;SDS011;32703;49.182;9.042;2022-10-10T16:45:52;5.57;;;3.00;;